SHMÚ vydal meteorologické výstrahy na Nízke teplotyHmla Zobraziť výstrahy

HYDROLOGICKÁ VÝSTRAHA 1. stupeň Zobraziť výstrahy

Smogová situácia PM10 – Jelšava Zobraziť

METAR

Letisková meteorologická správa METAR

Meteorologické informácie z ďalších profesionálnych meteorologických staníc SHMÚ zobrazené v tvare zodpovedajúcom pravidlám kódovania správ METAR sú uvedené v položke „METSYN

Informácie o správe METAR

19.01.2017 - 06:00 UTC

METAR LZIB 190600Z 21004KT CAVOK M10/M12 Q1036 R13/9/2095 NOSIG=
METAR LZKZ 190600Z 01013KT CAVOK M06/M11 Q1036 NOSIG=
METAR LZPP 190600Z 03002KT 8000 NSC M14/M15 Q1037=
METAR LZSL 190600Z 00000KT 0200 R36/0350N FZFG BKN001 M20/M22 Q1036=
METAR LZTT 190600Z 26008KT 5000 BR OVC003 M14/M15 Q1033 NOSIG=
METAR LZZI 190600Z 10007KT CAVOK M14/M16 Q1036=

19.01.2017 - 05:30 UTC

METAR LZIB 190530Z 21006KT CAVOK M10/M12 Q1036 R13/9/2095 NOSIG=
METAR LZKZ 190530Z 36015KT CAVOK M06/M11 Q1035 NOSIG=
METAR LZPP 190530Z VRB02KT 7000 NSC M13/M15 Q1036=
METAR LZSL 190530Z 00000KT 0100 R36/0375N FZFG BKN001 M20/M22 Q1036=
METAR LZTT 190530Z 27007KT 6000 OVC003 M13/M15 Q1033 NOSIG=
METAR LZZI 190530Z 10007KT CAVOK M14/M16 Q1036=

19.01.2017 - 06:00 UTC

METAR LZMC 190600Z 00000KT 5000 BR FEW007 M15/M17
Q1037=
METAR LZPW 190600Z 02008KT 9999 OVC015 M06/M09 Q1036=

skok na menu ↑


skok na začiatok stránky ↑